Time;durP1;ratioP1;P1;durP2;ratioP2;P2;SDS_P1;SDS_P2;PMS_P1;PMS_P2;Temp;Humidity;BMP_temperature;BMP_pressure;BME280_temperature;BME280_humidity;BME280_pressure;Samples;Min_cycle;Max_cycle;Signal;HPM_P1;HPM_P2
2021/04/23 00:00:53;;;;;;;14.82;3.88;;;9.80;49.40;;;;;;5064626;28;20052;-74
2021/04/23 00:03:28;;;;;;;11.88;4.25;;;9.70;49.90;;;;;;5084737;28;20067;-74
2021/04/23 00:06:09;;;;;;;10.57;3.70;;;10.00;48.80;;;;;;5078421;28;20044;-74
2021/04/23 00:08:36;;;;;;;8.98;4.25;;;9.80;49.40;;;;;;5070065;28;20072;-75
2021/04/23 00:11:06;;;;;;;10.38;2.97;;;9.70;49.70;;;;;;5064516;28;20071;-74
2021/04/23 00:13:33;;;;;;;17.92;3.85;;;9.80;49.90;;;;;;5062534;28;20045;-74
2021/04/23 00:16:00;;;;;;;12.25;3.97;;;9.90;49.90;;;;;;5070335;28;20106;-73
2021/04/23 00:18:27;;;;;;;10.55;3.17;;;10.00;48.50;;;;;;5068026;28;20075;-74
2021/04/23 00:20:54;;;;;;;10.40;3.40;;;10.00;48.40;;;;;;5068853;28;20521;-74
2021/04/23 00:23:20;;;;;;;13.20;4.03;;;9.70;49.60;;;;;;5068350;28;20110;-74
2021/04/23 00:25:47;;;;;;;15.68;4.05;;;9.50;50.20;;;;;;5069679;28;20053;-74
2021/04/23 00:28:14;;;;;;;13.55;4.60;;;9.30;50.60;;;;;;5067700;28;20162;-74
2021/04/23 00:30:50;;;;;;;18.92;5.05;;;9.40;50.90;;;;;;5066204;28;20044;-74
2021/04/23 00:33:18;;;;;;;18.52;5.07;;;9.30;50.70;;;;;;5069535;28;20106;-74
2021/04/23 00:35:48;;;;;;;13.13;4.70;;;9.30;50.90;;;;;;5065922;28;20052;-73
2021/04/23 00:38:21;;;;;;;12.80;4.75;;;9.30;51.10;;;;;;5067465;28;20049;-74
2021/04/23 00:40:52;;;;;;;17.48;4.95;;;9.30;51.10;;;;;;5059482;28;20064;-75
2021/04/23 00:43:22;;;;;;;15.70;5.30;;;9.30;51.30;;;;;;5065666;28;20542;-74
2021/04/23 00:45:49;;;;;;;13.30;5.38;;;9.50;50.90;;;;;;5067929;28;20053;-74
2021/04/23 00:48:16;;;;;;;13.00;4.68;;;9.60;50.70;;;;;;5078858;28;20086;-74
2021/04/23 00:50:49;;;;;;;12.35;4.85;;;9.60;50.50;;;;;;5072664;28;20087;-74
2021/04/23 00:53:21;;;;;;;18.10;4.75;;;9.60;50.60;;;;;;5074929;28;20049;-75
2021/04/23 00:55:48;;;;;;;12.02;4.65;;;9.50;50.80;;;;;;5072594;28;20049;-72
2021/04/23 00:58:17;;;;;;;12.20;4.28;;;9.50;51.00;;;;;;5070534;28;20068;-73
2021/04/23 01:00:50;;;;;;;16.90;4.10;;;9.30;51.20;;;;;;5075782;28;20052;-73
2021/04/23 01:03:19;;;;;;;16.75;4.28;;;9.10;51.50;;;;;;5072286;28;20552;-74
2021/04/23 01:05:47;;;;;;;13.37;3.57;;;9.00;52.20;;;;;;5071136;28;20045;-74
2021/04/23 01:08:14;;;;;;;11.75;3.80;;;9.20;51.80;;;;;;5073232;28;20075;-74
2021/04/23 01:10:42;;;;;;;8.40;3.38;;;9.20;51.80;;;;;;5069138;28;20052;-74
2021/04/23 01:13:09;;;;;;;11.95;4.15;;;9.40;51.40;;;;;;5073025;28;20140;-74
2021/04/23 01:15:35;;;;;;;8.65;4.03;;;9.50;51.20;;;;;;5074576;28;20041;-74
2021/04/23 01:18:02;;;;;;;18.77;4.45;;;9.40;50.90;;;;;;5072905;28;20501;-74
2021/04/23 01:20:29;;;;;;;9.98;3.72;;;9.20;51.70;;;;;;5068273;28;20480;-74
2021/04/23 01:22:56;;;;;;;14.10;3.97;;;9.20;51.80;;;;;;5071338;28;20052;-74
2021/04/23 01:25:23;;;;;;;10.90;4.00;;;9.20;51.50;;;;;;5065682;28;20140;-74
2021/04/23 01:27:51;;;;;;;9.52;3.70;;;9.30;51.50;;;;;;5070656;28;20052;-74
2021/04/23 01:30:20;;;;;;;15.68;3.70;;;9.10;51.60;;;;;;5072958;28;20128;-74
2021/04/23 01:32:49;;;;;;;11.07;3.70;;;9.00;51.90;;;;;;5074079;28;20106;-74
2021/04/23 01:35:21;;;;;;;10.50;3.63;;;8.90;52.30;;;;;;5070676;28;20080;-73
2021/04/23 01:37:48;;;;;;;10.70;3.70;;;8.90;52.30;;;;;;5073232;28;20049;-74
2021/04/23 01:40:16;;;;;;;10.00;3.97;;;8.90;52.60;;;;;;5072663;28;20118;-73
2021/04/23 01:42:42;;;;;;;13.77;4.55;;;8.80;52.50;;;;;;5071196;28;20541;-73
2021/04/23 01:45:10;;;;;;;9.77;3.90;;;8.70;52.60;;;;;;5073318;28;20412;-74
2021/04/23 01:47:37;;;;;;;13.18;4.65;;;8.70;52.90;;;;;;5071526;28;20079;-73
2021/04/23 01:50:07;;;;;;;12.35;3.90;;;8.70;53.00;;;;;;5072077;28;20090;-74
2021/04/23 01:52:33;;;;;;;12.32;4.25;;;8.60;53.00;;;;;;5064882;28;20486;-74
2021/04/23 01:55:00;;;;;;;17.77;4.18;;;8.70;53.20;;;;;;5071598;28;20450;-74
2021/04/23 01:57:26;;;;;;;9.48;3.78;;;8.70;53.30;;;;;;5071378;28;20048;-73
2021/04/23 01:59:53;;;;;;;12.90;4.45;;;8.90;52.90;;;;;;5072497;28;20048;-73
2021/04/23 02:02:20;;;;;;;12.43;3.80;;;9.00;52.90;;;;;;5068046;28;20139;-74
2021/04/23 02:04:47;;;;;;;10.75;4.70;;;9.10;52.60;;;;;;5072494;28;20048;-73
2021/04/23 02:07:16;;;;;;;11.30;4.13;;;9.20;52.40;;;;;;5069247;28;20127;-74
2021/04/23 02:09:43;;;;;;;12.52;4.72;;;9.20;52.40;;;;;;5073552;28;20114;-73
2021/04/23 02:12:12;;;;;;;11.48;4.88;;;9.20;52.60;;;;;;5081184;28;20511;-73
2021/04/23 02:14:38;;;;;;;14.02;4.90;;;9.00;52.90;;;;;;5067935;28;20055;-73
2021/04/23 02:17:07;;;;;;;7.88;4.38;;;8.70;53.50;;;;;;5070062;28;20036;-73
2021/04/23 02:19:34;;;;;;;13.02;4.93;;;8.60;54.00;;;;;;5073510;28;20078;-73
2021/04/23 02:22:00;;;;;;;19.00;4.50;;;8.50;54.30;;;;;;5071636;28;20437;-73
2021/04/23 02:24:27;;;;;;;14.82;5.07;;;8.60;54.80;;;;;;5071099;28;20042;-73
2021/04/23 02:26:53;;;;;;;10.40;4.68;;;8.40;55.00;;;;;;5069233;28;20384;-73
2021/04/23 02:29:20;;;;;;;13.23;4.60;;;8.70;55.00;;;;;;5074756;28;20475;-73
2021/04/23 02:31:52;;;;;;;14.25;4.63;;;8.60;55.10;;;;;;5070896;28;20072;-73
2021/04/23 02:34:22;;;;;;;12.95;5.07;;;8.50;55.40;;;;;;5069138;28;20048;-72
2021/04/23 02:36:49;;;;;;;11.63;4.27;;;8.40;55.70;;;;;;5072580;28;20127;-74
2021/04/23 02:39:19;;;;;;;13.15;4.82;;;8.60;55.50;;;;;;5070485;28;20056;-74
2021/04/23 02:41:50;;;;;;;13.77;5.03;;;8.60;55.40;;;;;;5071094;28;20052;-75
2021/04/23 02:44:16;;;;;;;;;;;8.50;55.80;;;;;;5071142;28;20088;-75
2021/04/23 02:46:43;;;;;;;18.83;5.18;;;8.50;56.20;;;;;;5072688;28;19967;-74
2021/04/23 02:49:11;;;;;;;12.75;4.93;;;8.40;56.50;;;;;;5067059;28;20066;-74
2021/04/23 02:51:42;;;;;;;10.45;4.55;;;8.30;56.50;;;;;;5071139;28;20109;-72
2021/04/23 02:54:10;;;;;;;16.63;5.13;;;8.40;56.70;;;;;;5068747;28;21017;-72
2021/04/23 02:56:36;;;;;;;17.80;4.78;;;8.40;56.50;;;;;;5068086;28;20117;-73
2021/04/23 02:59:05;;;;;;;18.33;5.40;;;8.50;56.50;;;;;;5071379;28;20136;-73
2021/04/23 03:01:41;;;;;;;15.82;4.97;;;8.70;56.00;;;;;;5062495;28;20056;-73
2021/04/23 03:04:07;;;;;;;10.65;4.60;;;8.70;55.70;;;;;;5064754;28;20052;-73
2021/04/23 03:06:34;;;;;;;12.68;4.07;;;8.80;55.80;;;;;;5070161;28;20044;-73
2021/04/23 03:09:02;;;;;;;11.55;4.53;;;8.70;55.90;;;;;;5070907;28;20075;-72
2021/04/23 03:11:29;;;;;;;14.38;5.10;;;8.70;56.00;;;;;;5068118;28;20118;-73
2021/04/23 03:13:58;;;;;;;12.18;5.03;;;8.70;56.50;;;;;;5066913;28;20174;-73
2021/04/23 03:16:25;;;;;;;15.15;4.32;;;8.60;56.20;;;;;;5069713;28;20472;-74
2021/04/23 03:18:52;;;;;;;10.15;4.68;;;8.70;55.90;;;;;;5072053;28;20105;-74
2021/04/23 03:21:22;;;;;;;11.90;5.22;;;8.60;55.70;;;;;;5066476;28;20468;-73
2021/04/23 03:23:49;;;;;;;13.32;5.07;;;8.50;55.80;;;;;;5069879;28;20118;-73
2021/04/23 03:26:17;;;;;;;17.30;5.07;;;8.50;55.60;;;;;;5070254;28;20075;-73
2021/04/23 03:28:44;;;;;;;12.65;5.10;;;8.50;55.30;;;;;;5069872;28;20404;-73
2021/04/23 03:31:12;;;;;;;12.88;4.82;;;8.50;55.50;;;;;;5069315;28;20045;-73
2021/04/23 03:33:39;;;;;;;10.80;4.75;;;8.30;56.10;;;;;;5071090;28;20078;-72
2021/04/23 03:36:09;;;;;;;14.80;4.65;;;8.20;56.80;;;;;;5065694;28;20105;-72
2021/04/23 03:38:38;;;;;;;16.40;5.30;;;8.20;56.20;;;;;;5072146;28;20068;-73
2021/04/23 03:41:11;;;;;;;11.82;4.70;;;8.30;55.90;;;;;;5070807;28;20076;-72
2021/04/23 03:43:38;;;;;;;13.63;4.63;;;8.20;56.00;;;;;;5065826;28;20447;-73
2021/04/23 03:46:05;;;;;;;10.80;4.68;;;8.20;56.20;;;;;;5068373;28;20071;-72
2021/04/23 03:48:33;;;;;;;17.20;5.45;;;8.10;56.90;;;;;;5069414;28;20143;-72
2021/04/23 03:51:02;;;;;;;16.40;4.63;;;7.90;56.60;;;;;;5068349;28;20151;-73
2021/04/23 03:53:29;;;;;;;9.93;4.45;;;8.00;56.80;;;;;;5067476;28;20158;-72
2021/04/23 03:55:56;;;;;;;14.18;4.68;;;8.10;56.50;;;;;;5068582;28;20052;-73
2021/04/23 03:58:23;;;;;;;14.68;4.88;;;8.00;56.70;;;;;;5070282;28;20072;-72
2021/04/23 04:00:56;;;;;;;13.85;4.80;;;8.20;56.50;;;;;;5069700;28;20123;-72
2021/04/23 04:03:24;;;;;;;26.30;5.47;;;8.00;56.60;;;;;;5068231;28;20128;-72
2021/04/23 04:05:51;;;;;;;13.40;5.07;;;7.90;57.00;;;;;;5083625;28;20044;-72
2021/04/23 04:08:18;;;;;;;17.75;5.05;;;7.80;57.20;;;;;;5067249;28;20444;-73
2021/04/23 04:10:46;;;;;;;12.68;5.20;;;7.90;57.40;;;;;;5065793;28;20526;-72
2021/04/23 04:13:14;;;;;;;16.88;4.93;;;8.00;57.10;;;;;;5066380;28;20044;-73
2021/04/23 04:15:41;;;;;;;15.05;4.75;;;8.00;57.20;;;;;;5067912;28;20062;-74
2021/04/23 04:18:08;;;;;;;17.60;5.20;;;8.00;57.10;;;;;;5070480;28;20106;-73
2021/04/23 04:20:37;;;;;;;11.07;4.40;;;7.80;57.30;;;;;;5067868;28;20066;-73
2021/04/23 04:23:06;;;;;;;13.50;4.57;;;7.80;57.30;;;;;;5063191;28;20094;-74
2021/04/23 04:25:35;;;;;;;15.00;4.63;;;7.90;57.60;;;;;;5070000;28;20049;-73
2021/04/23 04:28:03;;;;;;;13.95;4.90;;;7.80;57.60;;;;;;5067691;28;20051;-74
2021/04/23 04:30:29;;;;;;;13.00;4.72;;;7.90;57.20;;;;;;5070729;28;20075;-74
2021/04/23 04:32:57;;;;;;;16.30;4.43;;;8.00;57.00;;;;;;5061118;28;20056;-72
2021/04/23 04:35:24;;;;;;;12.07;4.97;;;7.90;57.30;;;;;;5074310;28;20418;-74
2021/04/23 04:37:51;;;;;;;14.73;4.90;;;8.00;57.30;;;;;;5071881;28;20490;-73
2021/04/23 04:40:19;;;;;;;14.07;4.85;;;7.90;57.20;;;;;;5066133;28;20049;-74
2021/04/23 04:42:46;;;;;;;12.75;4.63;;;7.90;57.70;;;;;;5069362;28;20554;-74
2021/04/23 04:45:16;;;;;;;13.00;5.10;;;7.90;57.40;;;;;;5070604;28;20068;-74
2021/04/23 04:47:43;;;;;;;14.05;4.30;;;8.00;57.40;;;;;;5071111;28;20455;-73
2021/04/23 04:50:13;;;;;;;14.25;5.30;;;7.80;57.60;;;;;;5070563;28;20072;-73
2021/04/23 04:52:40;;;;;;;17.08;5.00;;;7.70;58.10;;;;;;5069109;28;20052;-73
2021/04/23 04:55:07;;;;;;;11.68;4.70;;;7.80;58.00;;;;;;5065374;28;20127;-73
2021/04/23 04:57:36;;;;;;;14.70;5.00;;;7.90;58.40;;;;;;5070888;28;20045;-73
2021/04/23 05:00:09;;;;;;;17.73;5.22;;;8.00;57.80;;;;;;5068677;28;20129;-73
2021/04/23 05:02:36;;;;;;;19.30;5.00;;;7.90;57.80;;;;;;5082456;28;20445;-73
2021/04/23 05:05:06;;;;;;;14.43;4.78;;;7.80;58.20;;;;;;5068788;28;20049;-73
2021/04/23 05:07:32;;;;;;;12.65;4.70;;;7.90;58.00;;;;;;5069767;28;20140;-73
2021/04/23 05:09:59;;;;;;;13.07;4.95;;;7.90;57.80;;;;;;5068341;28;20044;-73
2021/04/23 05:12:25;;;;;;;8.68;4.68;;;8.00;57.70;;;;;;5063383;28;20048;-72
2021/04/23 05:14:52;;;;;;;12.43;4.38;;;8.00;57.70;;;;;;5069990;28;20102;-72
2021/04/23 05:17:18;;;;;;;14.57;4.85;;;8.00;57.60;;;;;;5067809;28;20083;-73
2021/04/23 05:19:44;;;;;;;12.80;4.45;;;8.00;57.50;;;;;;5065642;28;20052;-72
2021/04/23 05:22:11;;;;;;;14.63;5.15;;;8.00;58.20;;;;;;5071874;28;20510;-73
2021/04/23 05:24:37;;;;;;;11.95;4.82;;;7.70;58.10;;;;;;5067250;28;20553;-72
2021/04/23 05:27:04;;;;;;;14.52;4.50;;;7.90;58.00;;;;;;5064832;28;20141;-72
2021/04/23 05:29:30;;;;;;;17.75;5.30;;;8.10;57.50;;;;;;5081755;28;20091;-73
2021/04/23 05:31:57;;;;;;;23.38;4.93;;;8.10;57.60;;;;;;5071335;28;20076;-73
2021/04/23 05:34:24;;;;;;;16.00;4.63;;;8.20;57.30;;;;;;5072240;28;20040;-73
2021/04/23 05:36:50;;;;;;;14.38;5.43;;;8.20;57.20;;;;;;5073792;28;20040;-73
2021/04/23 05:39:16;;;;;;;14.43;5.22;;;8.20;57.30;;;;;;5074542;28;20053;-73
2021/04/23 05:41:42;;;;;;;10.30;4.47;;;8.30;57.00;;;;;;5072981;28;20048;-73
2021/04/23 05:44:10;;;;;;;13.60;5.47;;;8.40;56.70;;;;;;5070184;28;20048;-73
2021/04/23 05:46:37;;;;;;;18.48;5.28;;;8.80;56.40;;;;;;5068814;28;20488;-73
2021/04/23 05:49:05;;;;;;;11.05;5.43;;;8.90;55.80;;;;;;5071957;28;20114;-73
2021/04/23 05:51:32;;;;;;;14.60;5.40;;;9.30;55.00;;;;;;5070366;28;20072;-73
2021/04/23 05:53:58;;;;;;;15.73;5.35;;;9.70;54.90;;;;;;5071715;28;20135;-73
2021/04/23 05:56:25;;;;;;;13.90;5.45;;;10.10;52.60;;;;;;5068060;28;20569;-73
2021/04/23 05:58:51;;;;;;;17.40;5.80;;;10.40;52.70;;;;;;5061349;28;20041;-73
2021/04/23 06:01:19;;;;;;;17.77;5.90;;;10.30;51.70;;;;;;5072798;28;20052;-72
2021/04/23 06:03:46;;;;;;;15.20;5.15;;;10.60;51.20;;;;;;5085797;28;20098;-73
2021/04/23 06:06:12;;;;;;;14.20;4.97;;;11.60;49.60;;;;;;5072206;28;20102;-73
2021/04/23 06:08:38;;;;;;;20.45;4.78;;;12.40;48.60;;;;;;5071895;28;20084;-73
2021/04/23 06:11:06;;;;;;;19.83;5.78;;;12.20;48.20;;;;;;5065328;28;20476;-73
2021/04/23 06:13:33;;;;;;;13.60;5.45;;;11.70;47.80;;;;;;5067626;28;20079;-73
2021/04/23 06:15:59;;;;;;;16.33;5.38;;;10.90;49.20;;;;;;5071675;28;20101;-73
2021/04/23 06:18:25;;;;;;;19.85;6.00;;;10.50;50.20;;;;;;5073576;28;20076;-73
2021/04/23 06:20:52;;;;;;;13.68;5.38;;;10.60;50.20;;;;;;5073071;28;20484;-74
2021/04/23 06:23:19;;;;;;;14.40;5.78;;;10.80;50.10;;;;;;5072633;28;20083;-73
2021/04/23 06:25:45;;;;;;;29.83;5.70;;;10.70;50.10;;;;;;5069120;28;20044;-73
2021/04/23 06:28:12;;;;;;;16.90;5.28;;;12.00;49.60;;;;;;5070734;28;20082;-73
2021/04/23 06:30:39;;;;;;;15.75;4.90;;;12.40;46.90;;;;;;5065359;28;20056;-76
2021/04/23 06:33:19;;;;;;;14.52;5.68;;;11.20;48.80;;;;;;5072243;28;20056;-72
2021/04/23 06:35:47;;;;;;;16.27;5.10;;;10.80;49.70;;;;;;5069248;28;20044;-72
2021/04/23 06:38:14;;;;;;;15.23;5.15;;;10.90;50.50;;;;;;5072681;28;20052;-72
2021/04/23 06:40:41;;;;;;;16.75;5.53;;;10.70;50.10;;;;;;5072015;28;20738;-73
2021/04/23 06:43:08;;;;;;;17.92;5.72;;;10.60;50.10;;;;;;5072476;28;20426;-73
2021/04/23 06:45:35;;;;;;;16.35;5.90;;;10.40;50.30;;;;;;5065856;28;20132;-73
2021/04/23 06:48:02;;;;;;;16.90;5.78;;;10.40;50.30;;;;;;5071997;28;20045;-73
2021/04/23 06:50:29;;;;;;;18.00;5.43;;;10.40;50.50;;;;;;5072076;28;20498;-73
2021/04/23 06:52:56;;;;;;;17.48;5.85;;;10.40;50.10;;;;;;5071014;28;20071;-74
2021/04/23 06:55:23;;;;;;;15.93;5.75;;;10.50;50.20;;;;;;5068967;28;20464;-73
2021/04/23 06:57:51;;;;;;;14.38;5.25;;;11.30;49.40;;;;;;5073624;28;20170;-72
2021/04/23 07:00:21;;;;;;;14.07;5.45;;;11.60;48.30;;;;;;5065535;28;20083;-73
2021/04/23 07:02:47;;;;;;;12.50;4.35;;;12.20;48.10;;;;;;5067727;28;20068;-73
2021/04/23 07:05:15;;;;;;;18.63;5.05;;;12.70;46.20;;;;;;5073154;28;20071;-72
2021/04/23 07:07:41;;;;;;;14.55;4.93;;;11.90;46.70;;;;;;5070420;28;20491;-72
2021/04/23 07:10:12;;;;;;;16.77;5.78;;;11.70;48.30;;;;;;5073043;28;20444;-73
2021/04/23 07:12:39;;;;;;;25.73;5.95;;;11.80;48.00;;;;;;5069866;28;20061;-72
2021/04/23 07:15:08;;;;;;;17.17;5.20;;;12.10;47.70;;;;;;5070181;28;20140;-73
2021/04/23 07:17:35;;;;;;;16.10;5.90;;;13.30;46.30;;;;;;5080513;28;20163;-73
2021/04/23 07:20:22;;;;;;;16.65;6.43;;;14.80;44.30;;;;;;5070143;28;20442;-73
2021/04/23 07:22:51;;;;;;;18.25;6.38;;;14.10;43.60;;;;;;5068601;28;20452;-73
2021/04/23 07:25:20;;;;;;;13.38;5.03;;;13.80;44.20;;;;;;5069939;28;20131;-75
2021/04/23 07:27:46;;;;;;;13.40;5.10;;;14.10;44.50;;;;;;5064885;28;20420;-73
2021/04/23 07:30:16;;;;;;;13.05;4.90;;;14.20;44.00;;;;;;5069966;28;20128;-72
2021/04/23 07:32:43;;;;;;;22.27;6.00;;;13.40;44.20;;;;;;5069866;28;20117;-72
2021/04/23 07:35:10;;;;;;;16.58;5.65;;;12.50;45.80;;;;;;5073093;28;20287;-73
2021/04/23 07:37:36;;;;;;;16.20;5.97;;;12.80;46.50;;;;;;5070743;28;20468;-72
2021/04/23 07:40:06;;;;;;;13.48;4.80;;;12.60;46.20;;;;;;5069245;28;20460;-72
2021/04/23 07:42:33;;;;;;;9.27;5.00;;;12.50;46.30;;;;;;5071151;28;20106;-73
2021/04/23 07:45:00;;;;;;;12.00;4.75;;;12.40;46.60;;;;;;5068550;28;20377;-73
2021/04/23 07:47:26;;;;;;;11.38;4.88;;;12.70;46.30;;;;;;5072313;28;20049;-73
2021/04/23 07:49:53;;;;;;;14.20;6.30;;;12.90;46.30;;;;;;5070227;28;20040;-75
2021/04/23 07:52:20;;;;;;;15.68;6.22;;;12.40;46.30;;;;;;5070205;28;20071;-72
2021/04/23 07:54:46;;;;;;;13.50;5.20;;;12.60;46.40;;;;;;5058864;28;20068;-73
2021/04/23 07:57:13;;;;;;;16.83;5.18;;;13.30;45.80;;;;;;5049109;28;21419;-73
2021/04/23 07:59:40;;;;;;;10.80;4.93;;;13.00;45.80;;;;;;5065793;28;20135;-74
2021/04/23 08:02:08;;;;;;;10.25;5.07;;;13.00;45.80;;;;;;5048320;28;20064;-74
2021/04/23 08:04:38;;;;;;;13.73;4.68;;;13.80;45.00;;;;;;5049008;28;20049;-72
2021/04/23 08:07:06;;;;;;;18.02;5.57;;;14.40;44.00;;;;;;5051225;28;20059;-73
2021/04/23 08:09:36;;;;;;;12.63;5.15;;;14.10;43.50;;;;;;5051524;28;20068;-74
2021/04/23 08:12:04;;;;;;;11.85;5.28;;;14.80;43.50;;;;;;5047408;28;20139;-74
2021/04/23 08:14:30;;;;;;;14.57;5.25;;;15.30;42.20;;;;;;5066676;28;20428;-74
2021/04/23 08:16:57;;;;;;;17.00;5.07;;;14.60;42.20;;;;;;5049865;28;20368;-76
2021/04/23 08:19:23;;;;;;;14.52;5.47;;;14.10;43.10;;;;;;5049988;28;20139;-74
2021/04/23 08:21:50;;;;;;;25.23;6.07;;;13.50;44.30;;;;;;5065222;28;20152;-74
2021/04/23 08:24:16;;;;;;;14.00;4.95;;;13.70;44.40;;;;;;5049643;28;20076;-75
2021/04/23 08:26:43;;;;;;;11.77;5.07;;;14.10;46.20;;;;;;5049018;28;20048;-75
2021/04/23 08:29:13;;;;;;;16.25;5.65;;;14.70;43.40;;;;;;5050457;28;20053;-75
2021/04/23 08:31:42;;;;;;;10.13;4.97;;;15.00;41.70;;;;;;5049086;28;20743;-76
2021/04/23 08:34:10;;;;;;;15.40;5.13;;;15.80;42.20;;;;;;5047271;28;20053;-74
2021/04/23 08:36:36;;;;;;;14.25;5.28;;;16.70;38.90;;;;;;5053579;28;20056;-74
2021/04/23 08:39:06;;;;;;;17.67;5.95;;;16.40;39.40;;;;;;5049296;28;20057;-73
2021/04/23 08:41:34;;;;;;;10.52;5.53;;;15.50;40.90;;;;;;5048810;28;20095;-76
2021/04/23 08:44:03;;;;;;;18.48;6.25;;;16.00;40.60;;;;;;5050978;28;20522;-77
2021/04/23 08:46:29;;;;;;;13.95;5.65;;;16.30;40.00;;;;;;5052991;28;20485;-76
2021/04/23 08:48:56;;;;;;;19.17;5.82;;;16.00;40.10;;;;;;5049615;28;20053;-77
2021/04/23 08:51:23;;;;;;;14.88;5.68;;;15.90;40.20;;;;;;5051713;28;20175;-72
2021/04/23 08:53:53;;;;;;;13.60;5.82;;;15.00;42.60;;;;;;5049601;28;20167;-73
2021/04/23 08:56:19;;;;;;;;;;;14.60;42.30;;;;;;5052048;28;20075;-74
2021/04/23 08:58:47;;;;;;;13.82;5.88;;;15.20;40.70;;;;;;5049198;28;19983;-72
2021/04/23 09:01:14;;;;;;;12.43;5.22;;;15.80;40.30;;;;;;5051151;28;20504;-72
2021/04/23 09:03:41;;;;;;;13.50;5.32;;;16.10;39.70;;;;;;5048009;28;20064;-73
2021/04/23 09:06:08;;;;;;;14.88;5.50;;;16.20;40.00;;;;;;5049053;28;20067;-73
2021/04/23 09:08:35;;;;;;;12.63;5.57;;;15.60;40.70;;;;;;5053845;28;20037;-73
2021/04/23 09:11:17;;;;;;;21.98;5.97;;;16.20;41.40;;;;;;5054472;28;20052;-73
2021/04/23 09:13:56;;;;;;;10.52;4.93;;;16.20;40.10;;;;;;5051758;28;20163;-73
2021/04/23 09:16:44;;;;;;;13.48;5.55;;;17.30;38.40;;;;;;5052910;28;20399;-74
2021/04/23 09:19:26;;;;;;;12.98;5.47;;;17.50;37.50;;;;;;5054448;28;20442;-73
2021/04/23 09:22:04;;;;;;;15.65;5.03;;;16.30;39.40;;;;;;5054500;28;20857;-74
2021/04/23 09:24:42;;;;;;;14.88;5.07;;;16.20;38.50;;;;;;5050616;28;20048;-73
2021/04/23 09:27:21;;;;;;;17.70;5.40;;;16.10;39.40;;;;;;5053938;28;20080;-73
2021/04/23 09:29:52;;;;;;;10.27;5.47;;;16.10;39.20;;;;;;5066178;28;20049;-74
2021/04/23 09:32:27;;;;;;;14.43;5.68;;;16.40;39.60;;;;;;5069777;28;20135;-79
2021/04/23 09:35:03;;;;;;;10.07;5.10;;;15.70;40.60;;;;;;5053205;28;20412;-77
2021/04/23 09:37:40;;;;;;;15.10;6.05;;;16.10;40.30;;;;;;5052584;28;20067;-71
2021/04/23 09:40:09;;;;;;;14.63;5.80;;;17.60;37.40;;;;;;5051096;28;20500;-72
2021/04/23 09:42:54;;;;;;;16.02;5.53;;;17.80;37.40;;;;;;5052599;28;21131;-71
2021/04/23 09:45:24;;;;;;;15.73;5.60;;;17.10;37.60;;;;;;5049934;28;20077;-70
2021/04/23 09:47:51;;;;;;;11.70;5.18;;;16.80;38.50;;;;;;5051967;28;20080;-71
2021/04/23 09:50:20;;;;;;;15.18;5.63;;;17.60;37.70;;;;;;5052150;28;20067;-70
2021/04/23 09:52:48;;;;;;;10.40;5.63;;;18.20;36.30;;;;;;5051771;28;20125;-72
2021/04/23 09:55:16;;;;;;;13.57;5.20;;;17.30;37.80;;;;;;5053829;28;20550;-71
2021/04/23 09:57:51;;;;;;;11.70;4.85;;;16.70;38.00;;;;;;5054120;28;20051;-71
2021/04/23 10:00:25;;;;;;;22.02;6.30;;;16.10;40.70;;;;;;5052067;28;20080;-72
2021/04/23 10:02:56;;;;;;;14.65;5.63;;;16.40;40.60;;;;;;5054180;28;20647;-72
2021/04/23 10:05:33;;;;;;;18.88;5.75;;;16.20;40.40;;;;;;5050992;28;20053;-71
2021/04/23 10:08:00;;;;;;;16.92;5.75;;;15.90;40.60;;;;;;5051633;28;20049;-71
2021/04/23 10:10:27;;;;;;;16.27;5.78;;;15.60;40.10;;;;;;5052104;28;20080;-70
2021/04/23 10:13:03;;;;;;;14.63;5.63;;;16.10;39.60;;;;;;5054251;28;20048;-71
2021/04/23 10:15:31;;;;;;;13.70;6.13;;;16.70;37.80;;;;;;5051702;28;20342;-72
2021/04/23 10:17:58;;;;;;;11.35;5.32;;;17.00;38.60;;;;;;5048988;28;20948;-72
2021/04/23 10:20:32;;;;;;;9.40;5.13;;;18.80;37.20;;;;;;5051198;28;20083;-72
2021/04/23 10:23:01;;;;;;;13.88;5.30;;;20.40;32.80;;;;;;5050241;28;20058;-73
2021/04/23 10:25:28;;;;;;;10.40;5.03;;;20.10;33.50;;;;;;5051732;28;20064;-72
2021/04/23 10:27:57;;;;;;;12.80;5.57;;;20.40;32.90;;;;;;5053489;28;20056;-73
2021/04/23 10:30:30;;;;;;;12.55;5.57;;;21.00;33.00;;;;;;5052030;28;20060;-73
2021/04/23 10:33:13;;;;;;;13.52;5.45;;;21.30;32.80;;;;;;5051007;28;20060;-72
2021/04/23 10:35:46;;;;;;;12.35;5.63;;;19.90;33.10;;;;;;5053290;28;20071;-72
2021/04/23 10:38:15;;;;;;;17.02;5.20;;;19.80;34.30;;;;;;5050246;28;20052;-72
2021/04/23 10:40:45;;;;;;;18.98;5.50;;;18.80;34.80;;;;;;5052354;28;20072;-72
2021/04/23 10:43:17;;;;;;;20.30;5.93;;;17.90;35.80;;;;;;5050460;28;20168;-73
2021/04/23 10:45:47;;;;;;;8.80;4.70;;;19.20;35.70;;;;;;5055395;28;20132;-71
2021/04/23 10:48:16;;;;;;;19.08;5.60;;;20.50;32.40;;;;;;5052995;28;20603;-70
2021/04/23 10:50:45;;;;;;;13.57;5.22;;;22.10;30.80;;;;;;5053115;28;20041;-71
2021/04/23 10:53:32;;;;;;;13.32;5.63;;;21.90;30.50;;;;;;5051881;28;20052;-73
2021/04/23 10:56:06;;;;;;;17.60;5.18;;;22.60;30.70;;;;;;5050834;28;20504;-73
2021/04/23 10:58:32;;;;;;;10.82;4.88;;;23.20;29.70;;;;;;5058385;28;20840;-72
2021/04/23 11:01:01;;;;;;;14.80;5.28;;;22.70;29.50;;;;;;5061420;28;20118;-72
2021/04/23 11:03:32;;;;;;;10.60;4.93;;;19.80;30.40;;;;;;5061801;28;20132;-75
2021/04/23 11:06:04;;;;;;;13.70;5.80;;;18.30;33.90;;;;;;5060908;28;20079;-72
2021/04/23 11:08:35;;;;;;;14.30;5.28;;;17.80;35.20;;;;;;5059729;28;20059;-72
2021/04/23 11:13:33;;;;;;;11.90;4.93;;;18.10;34.10;;;;;;5058229;28;20059;-73
2021/04/23 11:16:26;;;;;;;11.05;4.65;;;18.00;34.80;;;;;;5059179;28;20565;-71
2021/04/23 11:19:13;;;;;;;9.52;5.10;;;18.10;34.90;;;;;;5059792;28;20691;-72
2021/04/23 11:21:39;;;;;;;18.33;4.50;;;18.00;33.90;;;;;;5058264;28;20131;-72
2021/04/23 11:24:21;;;;;;;11.32;4.50;;;17.50;35.20;;;;;;5058660;28;20056;-72
2021/04/23 11:26:57;;;;;;;11.18;5.30;;;18.20;34.40;;;;;;5058993;28;20091;-73
2021/04/23 11:29:31;;;;;;;15.43;4.35;;;18.40;34.80;;;;;;5061017;28;20088;-72
2021/04/23 11:32:14;;;;;;;16.75;5.10;;;18.90;34.80;;;;;;5061531;28;20125;-73
2021/04/23 11:34:45;;;;;;;18.50;5.43;;;19.30;33.20;;;;;;5059100;28;20138;-73
2021/04/23 11:37:45;;;;;;;15.20;5.32;;;19.40;33.00;;;;;;5061022;28;20135;-73
2021/04/23 11:40:26;;;;;;;11.38;5.10;;;19.60;32.10;;;;;;5052139;28;20098;-73
2021/04/23 11:43:02;;;;;;;20.40;5.40;;;18.90;32.90;;;;;;5058042;28;20052;-73
2021/04/23 11:45:33;;;;;;;15.27;6.35;;;18.80;34.50;;;;;;5058155;28;20086;-73
2021/04/23 11:48:06;;;;;;;14.02;5.28;;;19.10;34.50;;;;;;5059364;28;20877;-73
2021/04/23 11:50:47;;;;;;;15.35;5.13;;;20.20;33.70;;;;;;5062601;28;20516;-71
2021/04/23 11:53:16;;;;;;;14.88;5.25;;;20.70;31.50;;;;;;5061300;28;20048;-72
2021/04/23 11:55:50;;;;;;;17.10;5.25;;;21.30;32.60;;;;;;5061442;28;20048;-71
2021/04/23 11:58:21;;;;;;;11.20;4.80;;;23.30;30.60;;;;;;5054466;28;20075;-71
2021/04/23 12:01:00;;;;;;;14.30;5.00;;;23.90;28.40;;;;;;5059401;28;20052;-72
2021/04/23 12:03:27;;;;;;;10.40;4.78;;;22.50;29.10;;;;;;5060429;28;20053;-72
2021/04/23 12:05:55;;;;;;;10.75;5.53;;;21.90;30.70;;;;;;5059851;28;20094;-71
2021/04/23 12:08:34;;;;;;;12.55;4.72;;;23.20;29.50;;;;;;5061177;28;20098;-72
2021/04/23 12:11:04;;;;;;;11.55;5.15;;;22.50;29.20;;;;;;5062381;28;20048;-72
2021/04/23 12:13:39;;;;;;;11.75;4.22;;;22.90;28.50;;;;;;5057694;28;20135;-73
2021/04/23 12:16:16;;;;;;;20.63;5.00;;;24.50;28.30;;;;;;5078191;28;20051;-73
2021/04/23 12:18:50;;;;;;;24.02;5.25;;;23.70;28.30;;;;;;5060796;28;20503;-79
2021/04/23 12:21:17;;;;;;;11.30;4.80;;;22.60;29.40;;;;;;5062010;28;20511;-74
2021/04/23 12:23:43;;;;;;;13.40;5.75;;;23.10;29.80;;;;;;5061287;28;21445;-74
2021/04/23 12:26:12;;;;;;;12.05;5.10;;;22.50;30.00;;;;;;5061054;28;20564;-74
2021/04/23 12:28:44;;;;;;;14.85;5.70;;;23.60;34.60;;;;;;5061763;28;21292;-71
2021/04/23 12:31:20;;;;;;;14.02;5.25;;;24.70;29.40;;;;;;5059575;28;20052;-74
2021/04/23 12:33:48;;;;;;;104.85;50.95;;;25.70;28.30;;;;;;5054369;28;20550;-71
2021/04/23 12:36:24;;;;;;;18.67;9.32;;;26.40;29.00;;;;;;5059165;28;20067;-72
2021/04/23 12:39:05;;;;;;;18.48;8.05;;;26.80;27.30;;;;;;5060041;28;20067;-72
2021/04/23 12:41:35;;;;;;;14.30;6.75;;;25.50;27.30;;;;;;5060558;28;20060;-72
2021/04/23 12:44:07;;;;;;;19.08;7.93;;;26.30;27.30;;;;;;5064135;28;20059;-71
2021/04/23 12:46:38;;;;;;;17.48;6.68;;;26.60;26.80;;;;;;5060935;28;20080;-72
2021/04/23 12:49:13;;;;;;;17.08;6.80;;;27.20;26.40;;;;;;5064204;28;20583;-71
2021/04/23 12:51:45;;;;;;;19.20;7.80;;;26.50;26.70;;;;;;5066053;28;20127;-71
2021/04/23 12:54:14;;;;;;;17.25;8.05;;;27.20;26.40;;;;;;5063325;28;20048;-72
2021/04/23 12:56:47;;;;;;;14.82;6.35;;;26.30;25.50;;;;;;5064810;28;20282;-72